Time;durP1;ratioP1;P1;durP2;ratioP2;P2;SDS_P1;SDS_P2;PMS_P1;PMS_P2;Temp;Humidity;BMP_temperature;BMP_pressure;BME280_temperature;BME280_humidity;BME280_pressure;Samples;Min_cycle;Max_cycle;Signal;HPM_P1;HPM_P2
2023/03/05 00:00:26;;;;;;;;;21.00;18.00;;;;;10.39;83.02;100585.16;146606;620;46016;-84
2023/03/05 00:03:51;;;;;;;;;18.25;16.75;;;;;10.42;82.62;100574.06;146612;579;45021;-83
2023/03/05 00:06:47;;;;;;;;;24.75;21.75;;;;;10.45;82.90;100579.41;146605;601;46016;-85
2023/03/05 00:09:41;;;;;;;;;34.75;30.25;;;;;10.40;83.09;100572.31;146605;625;47010;-84
2023/03/05 00:12:39;;;;;;;;;30.75;26.75;;;;;10.48;82.94;100587.34;146602;605;47014;-84
2023/03/05 00:15:32;;;;;;;;;43.25;35.75;;;;;10.48;83.06;100588.22;146607;582;46020;-85
2023/03/05 00:18:32;;;;;;;;;35.50;30.75;;;;;10.45;82.53;100598.44;146603;579;46017;-85
2023/03/05 00:21:55;;;;;;;;;31.00;26.75;;;;;10.39;82.36;100604.19;146608;696;46020;-85
2023/03/05 00:24:59;;;;;;;;;21.50;20.25;;;;;10.28;82.04;100601.88;146604;584;46032;-84
2023/03/05 00:27:56;;;;;;;;;30.00;27.25;;;;;10.33;82.48;100618.56;146601;583;47020;-81
2023/03/05 00:31:05;;;;;;;;;33.00;29.25;;;;;10.33;83.05;100609.06;146604;578;47012;-88
2023/03/05 00:34:10;;;;;;;;;35.00;31.50;;;;;10.22;82.78;100594.66;146610;590;46010;-87
2023/03/05 00:37:09;;;;;;;;;39.00;31.25;;;;;10.24;82.91;100603.37;146606;565;46016;-87
2023/03/05 00:40:15;;;;;;;;;35.00;28.75;;;;;9.00;82.68;100390.84;146609;590;46021;-88
2023/03/05 00:43:22;;;;;;;;;37.75;31.75;;;;;10.13;83.54;100597.69;146602;603;46012;-83
2023/03/05 00:46:29;;;;;;;;;43.50;34.75;;;;;10.08;83.63;100600.84;146605;591;47010;-84
2023/03/05 00:49:25;;;;;;;;;29.25;27.50;;;;;10.04;84.52;100599.81;146604;584;46914;-83
2023/03/05 00:52:34;;;;;;;;;29.50;28.50;;;;;8.47;83.75;100321.72;146609;569;46010;-90
2023/03/05 00:55:35;;;;;;;;;37.50;29.25;;;;;10.06;84.99;100586.91;146606;595;46017;-86
2023/03/05 00:58:44;;;;;;;;;36.50;29.50;;;;;10.10;85.04;100584.56;146604;649;46020;-76
2023/03/05 01:01:37;;;;;;;;;28.75;26.25;;;;;10.09;84.42;100569.84;146606;597;46028;-79
2023/03/05 01:04:49;;;;;;;;;27.25;24.00;;;;;10.11;84.28;100573.38;146605;582;46012;-81
2023/03/05 01:07:42;;;;;;;;;25.00;24.50;;;;;10.13;84.28;100566.59;146602;628;46012;-79
2023/03/05 01:10:44;;;;;;;;;29.50;23.75;;;;;10.12;84.22;100561.31;146608;669;46011;-78
2023/03/05 01:13:53;;;;;;;;;23.75;22.25;;;;;10.10;83.84;100558.66;146604;617;46016;-81
2023/03/05 01:16:56;;;;;;;;;27.25;23.75;;;;;10.09;83.76;100549.13;146613;678;47010;-81
2023/03/05 01:19:57;;;;;;;;;24.00;19.50;;;;;10.05;83.54;100547.16;146613;589;46016;-82
2023/03/05 01:22:57;;;;;;;;;21.25;20.50;;;;;10.01;83.38;100545.25;146614;580;46020;-80
2023/03/05 01:26:12;;;;;;;;;17.75;16.50;;;;;9.95;84.40;100537.16;146612;641;46012;-81
2023/03/05 01:29:23;;;;;;;;;17.25;15.00;;;;;9.89;83.91;100536.84;146610;580;46010;-80
2023/03/05 01:32:27;;;;;;;;;16.25;11.75;;;;;9.85;84.06;100530.62;146607;574;47013;-81
2023/03/05 01:35:30;;;;;;;;;12.75;10.75;;;;;9.82;84.09;100535.66;146616;672;46010;-81
2023/03/05 01:38:25;;;;;;;;;9.75;7.75;;;;;9.77;84.05;100525.88;146610;622;47013;-81
2023/03/05 01:41:39;;;;;;;;;;;;;;;;;;;;;
2023/03/05 01:45:15;;;;;;;;;11.00;9.75;;;;;8.52;84.33;100322.81;146612;584;46016;-81
2023/03/05 01:48:16;;;;;;;;;5.00;4.50;;;;;9.61;84.94;100524.19;146620;582;46030;-82
2023/03/05 01:51:22;;;;;;;;;2.25;2.25;;;;;9.61;84.73;100524.19;146611;664;46016;-81
2023/03/05 01:54:32;;;;;;;;;;;;;;;;;;;;;
2023/03/05 01:57:51;;;;;;;;;5.00;4.75;;;;;9.67;83.56;100512.44;146614;700;46016;-80
2023/03/05 02:00:52;;;;;;;;;6.25;3.75;;;;;9.65;83.99;100516.66;146606;600;48012;-81
2023/03/05 02:04:13;;;;;;;;;6.00;4.25;;;;;8.18;82.82;100271.03;146611;602;47012;-78
2023/03/05 02:07:46;;;;;;;;;;;;;;;;;;;;;
2023/03/05 02:11:14;;;;;;;;;7.50;7.25;;;;;8.24;82.48;100265.31;146610;606;46912;-86
2023/03/05 02:14:10;;;;;;;;;8.00;7.00;;;;;9.61;83.09;100504.38;146618;576;46022;-83
2023/03/05 02:17:38;;;;;;;;;11.25;9.75;;;;;9.48;82.48;100478.66;146610;581;47014;-83
2023/03/05 02:20:59;;;;;;;;;11.25;8.00;;;;;9.60;82.37;100504.31;146617;661;46020;-85
2023/03/05 02:24:06;;;;;;;;;10.50;9.00;;;;;9.56;82.38;100499.75;146606;573;48012;-86
2023/03/05 02:27:33;;;;;;;;;8.00;7.50;;;;;9.51;82.99;100501.25;146615;599;46020;-73
2023/03/05 02:30:47;;;;;;;;;8.50;6.00;;;;;9.49;82.39;100508.91;146611;586;46013;-73
2023/03/05 02:33:45;;;;;;;;;6.50;6.50;;;;;9.45;82.94;100505.28;146609;563;46020;-76
2023/03/05 02:36:50;;;;;;;;;7.00;7.00;;;;;9.35;82.46;100504.72;146609;609;46034;-81
2023/03/05 02:39:55;;;;;;;;;3.75;3.50;;;;;9.23;82.00;100504.97;146615;622;46021;-79
2023/03/05 02:43:09;;;;;;;;;4.00;4.00;;;;;7.95;82.77;100305.94;146611;677;46012;-79
2023/03/05 02:46:07;;;;;;;;;24.00;19.25;;;;;9.03;83.18;100511.63;146616;604;46023;-78
2023/03/05 02:49:14;;;;;;;;;18.50;14.00;;;;;8.95;83.44;100508.66;146604;605;46025;-80
2023/03/05 02:52:25;;;;;;;;;;;;;;;;;;;;;
2023/03/05 02:55:27;;;;;;;;;7.00;6.00;;;;;8.80;84.66;100513.00;146602;612;48910;-79
2023/03/05 02:58:30;;;;;;;;;10.75;8.00;;;;;8.76;84.68;100517.09;146615;563;46020;-78
2023/03/05 03:01:37;;;;;;;;;11.00;8.75;;;;;8.75;84.01;100517.00;146611;583;46016;-86
2023/03/05 03:04:34;;;;;;;;;4.75;4.75;;;;;8.77;84.75;100515.41;146604;578;46010;-80
2023/03/05 03:07:29;;;;;;;;;5.25;3.25;;;;;8.79;84.17;100512.09;146610;575;47014;-79
2023/03/05 03:10:27;;;;;;;;;3.00;3.00;;;;;8.87;84.87;100517.69;146613;703;47010;-80
2023/03/05 03:13:24;;;;;;;;;3.25;3.25;;;;;8.93;84.84;100504.19;146611;645;46017;-80
2023/03/05 03:16:22;;;;;;;;;4.00;3.50;;;;;9.01;84.78;100516.75;146615;578;46030;-79
2023/03/05 03:19:14;;;;;;;;;6.50;5.50;;;;;9.05;84.76;100516.91;146610;593;46016;-79
2023/03/05 03:22:15;;;;;;;;;6.00;5.00;;;;;9.13;85.21;100519.09;146616;608;46021;-78
2023/03/05 03:25:13;;;;;;;;;6.25;4.50;;;;;9.16;84.87;100513.22;146613;613;47016;-78
2023/03/05 03:28:24;;;;;;;;;8.75;7.75;;;;;9.06;83.93;100504.03;146615;573;46012;-78
2023/03/05 03:31:17;;;;;;;;;8.75;7.00;;;;;8.95;83.33;100507.78;146613;620;46016;-81
2023/03/05 03:34:31;;;;;;;;;7.25;5.50;;;;;8.92;84.21;100511.06;146604;672;47010;-76
2023/03/05 03:37:33;;;;;;;;;5.00;4.00;;;;;8.93;84.28;100501.63;146610;597;46915;-78
2023/03/05 03:40:32;;;;;;;;;9.25;8.00;;;;;8.93;84.09;100506.78;146612;635;47012;-75
2023/03/05 03:43:38;;;;;;;;;6.50;6.50;;;;;8.91;83.52;100496.38;146610;570;46030;-76
2023/03/05 03:46:46;;;;;;;;;8.50;8.25;;;;;8.84;83.98;100502.00;146614;567;46012;-75
2023/03/05 03:49:57;;;;;;;;;13.25;9.50;;;;;8.84;84.04;100507.16;146609;574;46016;-76
2023/03/05 03:53:02;;;;;;;;;8.25;8.00;;;;;8.87;84.07;100502.16;146617;648;46021;-80
2023/03/05 03:56:07;;;;;;;;;9.00;8.00;;;;;8.92;84.45;100510.19;146612;591;46913;-83
2023/03/05 03:59:14;;;;;;;;;10.25;8.50;;;;;7.58;84.42;100270.34;146615;588;46035;-80
2023/03/05 04:02:19;;;;;;;;;16.75;13.25;;;;;9.02;84.73;100512.47;146608;595;46012;-79
2023/03/05 04:05:33;;;;;;;;;19.75;16.00;;;;;9.06;84.49;100495.41;146602;583;46010;-76
2023/03/05 04:08:43;;;;;;;;;14.00;13.00;;;;;9.13;84.66;100506.19;146604;609;46016;-80
2023/03/05 04:11:44;;;;;;;;;15.75;14.25;;;;;9.14;84.43;100501.87;146606;623;46010;-80
2023/03/05 04:14:52;;;;;;;;;11.25;10.25;;;;;9.06;85.40;100498.88;146604;663;46915;-79
2023/03/05 04:17:49;;;;;;;;;12.75;12.50;;;;;9.01;84.80;100509.00;146636;598;45020;-80
2023/03/05 04:20:46;;;;;;;;;13.00;10.00;;;;;9.02;85.08;100502.13;146630;630;45911;-83
2023/03/05 04:23:42;;;;;;;;;10.00;7.75;;;;;9.05;85.13;100499.69;146636;581;45030;-78
2023/03/05 04:26:42;;;;;;;;;11.25;11.25;;;;;9.10;84.98;100503.44;146633;571;45012;-75
2023/03/05 04:30:09;;;;;;;;;7.75;7.00;;;;;9.16;84.97;100515.81;146635;570;45020;-79
2023/03/05 04:33:10;;;;;;;;;13.25;11.50;;;;;9.25;85.27;100509.41;146629;608;46012;-80
2023/03/05 04:36:29;;;;;;;;;12.25;11.25;;;;;9.34;85.18;100513.28;146628;578;46010;-79
2023/03/05 04:39:35;;;;;;;;;12.75;11.00;;;;;9.41;85.11;100515.41;146631;577;45911;-77
2023/03/05 04:42:48;;;;;;;;;;;;;;;;;;;;;
2023/03/05 04:45:50;;;;;;;;;14.75;12.50;;;;;8.48;84.45;100348.44;146627;670;46911;-79
2023/03/05 04:49:05;;;;;;;;;14.50;13.25;;;;;9.52;84.71;100516.84;146631;600;45913;-77
2023/03/05 04:52:06;;;;;;;;;12.00;11.25;;;;;9.56;84.71;100513.59;146632;578;46913;-78
2023/03/05 04:55:07;;;;;;;;;9.75;8.50;;;;;9.57;84.77;100504.16;146636;569;45020;-78
2023/03/05 04:58:26;;;;;;;;;9.50;8.25;;;;;8.53;84.30;100334.03;146631;589;45913;-79
2023/03/05 05:01:22;;;;;;;;;7.00;6.00;;;;;9.44;87.02;100506.09;146701;570;46012;-79
2023/03/05 05:04:24;;;;;;;;;11.75;9.00;;;;;9.42;85.62;100496.47;146620;569;46012;-78
2023/03/05 05:07:38;;;;;;;;;11.25;9.50;;;;;9.37;85.23;100490.16;146624;654;46021;-79
2023/03/05 05:10:44;;;;;;;;;9.75;9.75;;;;;9.33;84.63;100490.81;146619;593;46016;-77
2023/03/05 05:13:40;;;;;;;;;8.75;7.75;;;;;9.30;85.29;100494.13;146625;596;46020;-78
2023/03/05 05:16:38;;;;;;;;;9.50;9.00;;;;;9.34;85.52;100497.75;146621;595;46013;-77
2023/03/05 05:19:50;;;;;;;;;;;;;;;;;;;;;
2023/03/05 05:22:56;;;;;;;;;11.50;10.25;;;;;9.44;85.80;100490.56;146616;566;46016;-75
2023/03/05 05:26:26;;;;;;;;;11.00;9.00;;;;;9.44;84.98;100495.75;146624;644;46010;-75
2023/03/05 05:29:20;;;;;;;;;9.75;8.75;;;;;9.48;85.15;100501.97;146621;590;46016;-86
2023/03/05 05:32:38;;;;;;;;;11.25;9.25;;;;;8.67;84.96;100355.47;146624;579;46009;-88
2023/03/05 05:35:37;;;;;;;;;8.75;7.50;;;;;9.62;85.20;100494.87;146620;589;46016;-88
2023/03/05 05:38:41;;;;;;;;;7.00;6.25;;;;;9.61;84.48;100495.72;146624;673;46012;-89
2023/03/05 05:41:39;;;;;;;;;11.50;10.50;;;;;9.60;84.44;100501.72;146616;612;46016;-81
2023/03/05 05:44:46;;;;;;;;;9.25;7.75;;;;;9.60;84.25;100494.84;146622;584;46021;-81
2023/03/05 05:47:56;;;;;;;;;8.75;6.50;;;;;9.65;87.79;100418.28;146621;565;46016;-80
2023/03/05 05:51:02;;;;;;;;;12.00;8.25;;;;;10.97;94.46;100447.91;146626;594;46020;-80
2023/03/05 05:53:54;;;;;;;;;7.25;7.00;;;;;12.51;91.38;100477.78;146619;668;46016;-80
2023/03/05 05:56:58;;;;;;;;;9.75;9.50;;;;;13.75;82.11;100477.19;146623;597;45020;-80
2023/03/05 05:59:56;;;;;;;;;18.50;15.25;;;;;14.79;74.71;100473.63;146618;577;46017;-79
2023/03/05 06:02:51;;;;;;;;;20.75;17.50;;;;;15.64;68.90;100482.16;146621;615;46010;-85
2023/03/05 06:06:01;;;;;;;;;24.00;19.50;;;;;16.28;66.81;100472.47;146617;661;46012;-83
2023/03/05 06:08:58;;;;;;;;;22.75;20.50;;;;;16.53;60.96;100475.66;146620;626;46010;-83
2023/03/05 06:11:54;;;;;;;;;21.25;18.00;;;;;16.12;63.13;100476.44;146616;591;46016;-86
2023/03/05 06:14:52;;;;;;;;;26.50;21.25;;;;;15.80;64.75;100483.47;146623;597;46010;-84
2023/03/05 06:18:00;;;;;;;;;;;;;;;;;;;;;
2023/03/05 06:21:24;;;;;;;;;;;;;;;;;;;;;
2023/03/05 06:24:27;;;;;;;;;21.25;20.75;;;;;15.73;63.29;100476.28;146616;579;45016;-86
2023/03/05 06:27:23;;;;;;;;;22.75;20.75;;;;;15.51;63.15;100468.69;146622;586;46010;-85
2023/03/05 06:30:39;;;;;;;;;23.75;20.50;;;;;15.37;65.41;100482.28;146616;577;46012;-88
2023/03/05 06:33:41;;;;;;;;;;;;;;;;;;;;;
2023/03/05 06:36:42;;;;;;;;;31.25;27.50;;;;;15.38;66.28;100476.19;146616;571;46013;-79
2023/03/05 06:40:03;;;;;;;;;28.50;26.00;;;;;15.37;65.22;100474.44;146620;656;49010;-79
2023/03/05 06:43:02;;;;;;;;;31.50;29.00;;;;;15.30;65.70;100474.25;146615;600;46017;-80
2023/03/05 06:46:20;;;;;;;;;30.75;29.50;;;;;15.22;66.83;100468.78;146618;575;47010;-79
2023/03/05 06:49:17;;;;;;;;;37.00;30.75;;;;;15.25;67.43;100466.25;146617;580;46016;-79
2023/03/05 06:52:15;;;;;;;;;34.25;28.25;;;;;15.16;67.33;100438.16;146622;624;46020;-85
2023/03/05 06:55:40;;;;;;;;;;;;;;;;;;;;;
2023/03/05 06:58:54;;;;;;;;;;;;;;;;;;;;;
2023/03/05 07:01:54;;;;;;;;;18.00;16.00;;;;;15.73;66.18;100478.03;146632;601;45016;-85
2023/03/05 07:04:58;;;;;;;;;26.00;22.25;;;;;15.87;66.68;100477.53;146637;564;46010;-87
2023/03/05 07:07:51;;;;;;;;;26.25;24.00;;;;;15.93;66.45;100475.09;146627;768;47915;-80
2023/03/05 07:10:46;;;;;;;;;27.50;24.25;;;;;16.01;65.36;100475.31;146635;631;45020;-81
2023/03/05 07:13:52;;;;;;;;;;;;;;;;;;;;;
2023/03/05 07:16:49;;;;;;;;;31.75;26.25;;;;;16.21;66.38;100474.91;146636;582;45010;-80
2023/03/05 07:19:54;;;;;;;;;34.50;27.25;;;;;16.32;65.40;100469.09;146628;599;46012;-80
2023/03/05 07:22:54;;;;;;;;;22.75;19.50;;;;;16.32;63.95;100474.31;146633;563;46020;-79
2023/03/05 07:26:04;;;;;;;;;;;;;;;;;;;;;
2023/03/05 07:29:14;;;;;;;;;25.00;22.25;;;;;14.87;65.12;100305.94;146636;625;45020;-80
2023/03/05 07:32:25;;;;;;;;;25.75;21.00;;;;;15.58;66.22;100463.69;146629;576;45915;-79
2023/03/05 07:35:30;;;;;;;;;26.25;22.75;;;;;14.47;69.07;100291.72;146636;614;45021;-79
2023/03/05 07:38:36;;;;;;;;;25.50;20.75;;;;;15.67;66.96;100463.97;146628;595;45016;-79
2023/03/05 07:41:31;;;;;;;;;23.00;22.00;;;;;15.81;67.91;100468.66;146633;575;45020;-78
2023/03/05 07:44:37;;;;;;;;;28.75;26.25;;;;;16.06;67.93;100463.19;146633;598;45012;-83
2023/03/05 07:47:44;;;;;;;;;25.75;21.50;;;;;16.34;65.32;100456.03;146630;618;46010;-86
2023/03/05 07:50:56;;;;;;;;;;;;;;;;;;;;;
2023/03/05 07:54:27;;;;;;;;;25.75;20.50;;;;;16.49;66.57;100458.13;146634;609;45010;-81
2023/03/05 07:57:26;;;;;;;;;22.00;20.50;;;;;16.55;65.92;100467.00;146632;576;45013;-80
2023/03/05 08:00:56;;;;;;;;;24.50;21.50;;;;;16.76;66.90;100460.50;146624;651;47010;-83
2023/03/05 08:04:01;;;;;;;;;26.25;20.00;;;;;17.00;63.53;100460.13;146617;621;47013;-83
2023/03/05 08:07:05;;;;;;;;;24.00;23.00;;;;;17.10;62.31;100459.47;146618;622;47012;-80
2023/03/05 08:10:35;;;;;;;;;24.00;20.00;;;;;17.14;63.10;100450.84;146619;565;46012;-81
2023/03/05 08:13:38;;;;;;;;;28.75;26.75;;;;;17.19;63.34;100443.06;146624;586;46020;-74
2023/03/05 08:16:50;;;;;;;;;26.00;22.50;;;;;17.22;62.40;100436.13;146614;658;47016;-74
2023/03/05 08:19:48;;;;;;;;;25.00;21.50;;;;;17.38;63.81;100436.44;146616;601;47011;-74
2023/03/05 08:22:41;;;;;;;;;28.75;23.50;;;;;17.59;64.01;100436.84;146616;591;46036;-74
2023/03/05 08:26:02;;;;;;;;;29.75;26.00;;;;;17.80;63.08;100428.50;146623;575;46020;-74
2023/03/05 08:29:04;;;;;;;;;28.00;23.25;;;;;18.01;61.93;100425.38;146619;579;46012;-74
2023/03/05 08:32:05;;;;;;;;;26.50;20.75;;;;;18.14;62.34;100419.44;146624;590;46010;-75
2023/03/05 08:35:21;;;;;;;;;16.50;15.75;;;;;18.07;62.19;100414.06;146616;628;46017;-74
2023/03/05 08:38:16;;;;;;;;;22.50;18.50;;;;;17.99;61.66;100417.44;146624;649;45020;-83
2023/03/05 08:41:09;;;;;;;;;18.50;16.00;;;;;17.96;61.88;100413.91;146617;590;46917;-80
2023/03/05 08:44:01;;;;;;;;;13.75;12.25;;;;;17.87;60.23;100406.75;146619;563;46020;-83
2023/03/05 08:46:53;;;;;;;;;20.50;15.75;;;;;17.75;60.35;100406.50;146617;615;46016;-84
2023/03/05 08:50:04;;;;;;;;;19.50;15.50;;;;;17.64;63.43;100401.09;146623;572;46020;-86
2023/03/05 08:53:14;;;;;;;;;24.00;20.00;;;;;17.35;62.99;100397.94;146617;651;47012;-84
2023/03/05 08:56:10;;;;;;;;;21.75;17.75;;;;;17.02;63.91;100392.97;146622;600;46011;-83
2023/03/05 08:59:02;;;;;;;;;18.75;18.50;;;;;16.72;64.21;100387.94;146617;605;46031;-82
2023/03/05 09:02:19;;;;;;;;;20.75;18.25;;;;;16.43;66.10;100382.09;146622;580;46010;-82
2023/03/05 09:05:31;;;;;;;;;15.25;14.00;;;;;16.32;68.04;100382.75;146615;636;46910;-81
2023/03/05 09:08:28;;;;;;;;;17.25;12.75;;;;;16.27;68.08;100375.63;146618;670;47010;-82
2023/03/05 09:11:26;;;;;;;;;17.50;14.25;;;;;16.26;69.62;100379.06;146620;566;46913;-78
2023/03/05 09:14:26;;;;;;;;;21.00;19.25;;;;;16.49;69.06;100374.38;146620;564;46020;-80
2023/03/05 09:17:35;;;;;;;;;21.00;17.00;;;;;16.85;68.03;100364.72;146615;615;46015;-83
2023/03/05 09:20:33;;;;;;;;;16.25;14.00;;;;;17.14;67.04;100361.75;146621;674;46010;-78
2023/03/05 09:23:36;;;;;;;;;27.00;23.00;;;;;15.78;65.61;100092.16;146614;587;46016;-80
2023/03/05 09:26:50;;;;;;;;;21.50;17.50;;;;;17.43;64.23;100350.91;146620;577;46021;-76
2023/03/05 09:29:55;;;;;;;;;15.00;11.75;;;;;17.58;64.53;100351.19;146616;580;46016;-75
2023/03/05 09:32:50;;;;;;;;;13.75;12.00;;;;;17.71;63.99;100352.28;146622;594;46021;-78
2023/03/05 09:35:43;;;;;;;;;20.25;19.25;;;;;17.83;64.62;100346.38;146615;601;46016;-75
2023/03/05 09:38:42;;;;;;;;;24.75;19.50;;;;;17.89;64.69;100344.72;146620;583;46020;-77
2023/03/05 09:42:58;;;;;;;;;24.50;19.75;;;;;16.20;62.71;100049.34;146616;572;46017;-76
2023/03/05 09:46:48;;;;;;;;;15.25;15.25;;;;;17.71;62.96;100374.12;146620;593;46010;-76
2023/03/05 09:50:15;;;;;;;;;23.75;20.25;;;;;17.32;64.71;100345.50;146615;577;46012;-78
2023/03/05 09:53:49;;;;;;;;;29.25;20.50;;;;;17.11;65.15;100342.50;146618;621;46020;-78
2023/03/05 09:57:05;;;;;;;;;18.75;17.50;;;;;17.01;65.48;100344.94;146615;674;46913;-78
2023/03/05 10:00:18;;;;;;;;;18.25;13.75;;;;;16.69;65.28;100348.59;146621;648;46020;-78
2023/03/05 10:03:53;;;;;;;;;17.75;15.50;;;;;16.33;67.96;100363.56;146617;576;46012;-77
2023/03/05 10:07:16;;;;;;;;;16.75;15.50;;;;;16.07;67.43;100357.72;146620;563;46010;-81
2023/03/05 10:10:44;;;;;;;;;21.50;16.25;;;;;13.95;68.41;100053.00;146616;643;47013;-80
2023/03/05 10:13:45;;;;;;;;;20.25;18.00;;;;;15.51;69.73;100365.06;146620;650;46010;-79
2023/03/05 10:17:13;;;;;;;;;15.25;14.25;;;;;15.26;70.18;100360.91;146616;617;47013;-80
2023/03/05 10:20:31;;;;;;;;;16.25;14.00;;;;;15.01;71.78;100355.06;146615;573;47012;-79
2023/03/05 10:24:04;;;;;;;;;15.25;14.25;;;;;14.84;73.90;100360.66;146615;614;46016;-78
2023/03/05 10:27:19;;;;;;;;;16.00;16.00;;;;;14.61;75.48;100360.88;146618;581;46020;-78
2023/03/05 10:30:53;;;;;;;;;20.00;19.25;;;;;14.42;77.10;100359.41;146616;570;47012;-81
2023/03/05 10:34:29;;;;;;;;;20.25;17.00;;;;;12.35;76.93;100042.12;146620;609;46020;-79
2023/03/05 10:38:07;;;;;;;;;66.25;51.25;;;;;14.09;77.39;100346.25;146616;577;47014;-80
2023/03/05 10:41:51;;;;;;;;;56.50;42.75;;;;;14.12;78.37;100335.91;146619;655;46021;-80
2023/03/05 10:44:55;;;;;;;;;66.75;51.25;;;;;14.23;79.29;100328.41;146617;593;46018;-84
2023/03/05 10:48:36;;;;;;;;;;;;;;;;;;;;;
2023/03/05 10:52:00;;;;;;;;;58.75;46.50;;;;;14.84;80.66;100301.50;146614;612;47016;-84
2023/03/05 10:55:06;;;;;;;;;;;;;;;;;;;;;
2023/03/05 10:58:27;;;;;;;;;51.25;40.75;;;;;15.71;76.17;100279.34;146613;591;46016;-83
2023/03/05 11:01:36;;;;;;;;;27.25;26.25;;;;;16.00;77.28;100238.16;146633;628;45010;-81
2023/03/05 11:04:46;;;;;;;;;23.00;21.00;;;;;14.98;72.37;99954.63;146628;595;45914;-82
2023/03/05 11:07:52;;;;;;;;;20.00;18.00;;;;;17.14;69.81;100233.41;146633;717;45020;-80
2023/03/05 11:10:50;;;;;;;;;19.75;18.00;;;;;17.54;70.33;100236.66;146630;592;45016;-81
2023/03/05 11:14:12;;;;;;;;;18.50;14.75;;;;;17.94;68.09;100232.91;146635;612;46010;-79
2023/03/05 11:17:46;;;;;;;;;8.25;7.75;;;;;16.68;65.22;99933.25;146631;709;45913;-80
2023/03/05 11:20:53;;;;;;;;;14.50;14.25;;;;;18.80;63.00;100225.16;146635;592;44022;-80
2023/03/05 11:24:14;;;;;;;;;18.25;15.75;;;;;19.03;60.92;100223.59;146628;570;46016;-79
2023/03/05 11:27:30;;;;;;;;;10.00;8.50;;;;;18.97;60.92;100217.44;146636;600;45030;-79
2023/03/05 11:30:53;;;;;;;;;;;;;;;;;;;;;
2023/03/05 11:34:24;;;;;;;;;19.75;18.00;;;;;18.69;59.07;100212.78;146620;579;46012;-80
2023/03/05 11:37:35;;;;;;;;;9.25;7.50;;;;;18.38;59.31;100197.53;146622;601;46033;-77
2023/03/05 11:40:37;;;;;;;;;11.75;10.25;;;;;18.07;57.96;100206.78;146619;667;46016;-78
2023/03/05 11:43:37;;;;;;;;;10.75;9.00;;;;;17.69;59.17;100199.28;146621;592;46020;-78
2023/03/05 11:46:37;;;;;;;;;10.25;9.75;;;;;17.23;59.79;100193.37;146621;575;46012;-80
2023/03/05 11:49:41;;;;;;;;;10.50;9.75;;;;;16.34;59.69;100088.00;146625;608;46011;-78
2023/03/05 11:52:50;;;;;;;;;10.75;10.00;;;;;16.18;61.91;100119.97;146619;637;46016;-79
2023/03/05 11:56:29;;;;;;;;;13.25;12.00;;;;;16.22;65.47;100161.00;146621;578;46010;-78
2023/03/05 11:59:51;;;;;;;;;10.00;9.25;;;;;16.20;65.08;100178.44;146618;630;46016;-78
2023/03/05 12:02:47;;;;;;;;;16.50;14.50;;;;;16.09;65.91;100179.94;146623;614;46010;-77
2023/03/05 12:05:58;;;;;;;;;19.00;14.75;;;;;15.97;65.07;100179.69;146617;606;47014;-83
2023/03/05 12:09:40;;;;;;;;;;;;;;;;;;;;;
2023/03/05 12:13:40;;;;;;;;;;;;;;;;;;;;;
2023/03/05 12:17:14;;;;;;;;;12.75;11.50;;;;;15.42;66.29;100188.06;146621;582;46020;-82
2023/03/05 12:20:29;;;;;;;;;12.00;11.50;;;;;15.26;65.45;100180.69;146618;566;46018;-83
2023/03/05 12:23:29;;;;;;;;;16.50;13.75;;;;;15.07;65.36;100181.09;146622;576;46020;-80
2023/03/05 12:26:58;;;;;;;;;17.25;14.50;;;;;14.90;65.38;100180.72;146617;570;46016;-79
2023/03/05 12:30:00;;;;;;;;;29.50;25.50;;;;;14.74;68.07;100176.84;146623;674;46010;-81
2023/03/05 12:32:56;;;;;;;;;32.00;28.50;;;;;14.64;71.41;100195.69;146622;607;46012;-82
2023/03/05 12:36:17;;;;;;;;;11.25;11.25;;;;;14.46;68.96;100209.97;146616;625;47021;-85
2023/03/05 12:40:06;;;;;;;;;23.50;21.25;;;;;14.15;70.22;100228.22;146624;663;45016;-82
2023/03/05 12:43:44;;;;;;;;;20.75;20.50;;;;;13.92;71.06;100224.94;146624;581;46020;-83
2023/03/05 12:46:56;;;;;;;;;24.25;21.00;;;;;13.79;71.76;100214.13;146617;598;46016;-84
2023/03/05 12:49:59;;;;;;;;;;;;;;;;;;;;;
2023/03/05 12:52:56;;;;;;;;;31.75;25.75;;;;;13.58;69.75;100208.28;146619;633;46014;-82
2023/03/05 12:56:26;;;;;;;;;26.75;24.00;;;;;13.32;70.68;100182.31;146623;648;46010;-83
2023/03/05 12:59:37;;;;;;;;;24.00;19.50;;;;;13.37;70.67;100214.59;146615;607;46017;-85
2023/03/05 13:02:46;;;;;;;;;31.25;28.00;;;;;13.35;72.23;100223.19;146619;624;46020;-78
2023/03/05 13:06:06;;;;;;;;;9.25;7.00;;;;;13.15;73.03;100210.37;146616;573;46017;-78
2023/03/05 13:09:35;;;;;;;;;;;;;;;;;;;;;
2023/03/05 13:12:36;;;;;;;;;5.25;4.25;;;;;12.95;73.41;100227.03;146620;564;46013;-79
2023/03/05 13:15:38;;;;;;;;;2.50;1.00;;;;;12.73;71.39;100242.75;146624;661;46010;-78
2023/03/05 13:19:03;;;;;;;;;1.33;1.33;;;;;12.32;74.25;100235.25;146620;628;46012;-75
2023/03/05 13:22:17;;;;;;;;;2.00;2.00;;;;;12.02;75.32;100266.19;146625;610;46010;-75
2023/03/05 13:25:30;;;;;;;;;5.00;3.00;;;;;11.77;78.14;100270.44;146620;592;46016;-77
2023/03/05 13:28:38;;;;;;;;;2.75;2.00;;;;;11.69;80.07;100295.22;146624;648;46010;-77
2023/03/05 13:31:47;;;;;;;;;2.00;2.00;;;;;11.29;79.28;100236.50;146619;576;46016;-77
2023/03/05 13:34:56;;;;;;;;;5.25;2.75;;;;;11.66;80.01;100300.28;146625;632;46021;-77
2023/03/05 13:37:54;;;;;;;;;13.50;11.75;;;;;10.78;80.61;100154.84;146617;711;46016;-76
2023/03/05 13:41:23;;;;;;;;;6.50;5.75;;;;;11.60;80.81;100268.88;146622;566;46021;-77
2023/03/05 13:44:51;;;;;;;;;;;;;;;;;;;;;
2023/03/05 13:48:02;;;;;;;;;7.00;6.00;;;;;11.85;81.31;100290.66;146617;589;47022;-78
2023/03/05 13:51:05;;;;;;;;;9.00;7.75;;;;;11.90;81.64;100278.72;146619;564;46012;-76
2023/03/05 13:54:09;;;;;;;;;1.25;1.25;;;;;11.94;80.53;100271.09;146624;563;46010;-76
2023/03/05 13:57:05;;;;;;;;;2.75;2.75;;;;;11.97;80.61;100262.56;146618;586;46862;-75
2023/03/05 14:00:01;;;;;;;;;1.00;1.00;;;;;12.04;80.55;100264.53;146624;563;46020;-76
2023/03/05 14:03:07;;;;;;;;;12.00;9.75;;;;;12.14;80.33;100268.38;146618;565;46015;-75
2023/03/05 14:06:19;;;;;;;;;13.00;12.75;;;;;12.30;80.13;100255.09;146625;616;46010;-75
2023/03/05 14:09:24;;;;;;;;;2.00;2.00;;;;;12.36;77.64;100257.06;146615;672;46016;-74
2023/03/05 14:12:47;;;;;;;;;1.00;1.00;;;;;12.44;76.72;100243.50;146626;727;47012;-77
2023/03/05 14:16:34;;;;;;;;;;;;;;;;;;;;;
2023/03/05 14:19:48;;;;;;;;;7.25;7.00;;;;;12.57;75.27;100217.94;146621;603;46021;-77
2023/03/05 14:22:48;;;;;;;;;6.50;5.75;;;;;12.64;75.26;100219.91;146619;600;46016;-77
2023/03/05 14:25:57;;;;;;;;;6.75;5.50;;;;;11.89;74.55;100070.00;146621;592;46010;-76
2023/03/05 14:29:32;;;;;;;;;5.00;5.00;;;;;11.02;73.10;99913.66;146620;575;46012;-76
2023/03/05 14:32:47;;;;;;;;;3.75;3.75;;;;;11.34;72.19;99943.38;146623;611;46021;-77
2023/03/05 14:35:43;;;;;;;;;2.25;0.75;;;;;12.94;71.11;100199.25;146619;563;46911;-77
2023/03/05 14:38:51;;;;;;;;;3.25;2.75;;;;;13.02;71.74;100203.03;146623;575;46020;-76
2023/03/05 14:42:00;;;;;;;;;;;;;;;;;;;;;
2023/03/05 14:45:35;;;;;;;;;3.75;2.75;;;;;11.97;65.46;100014.00;146626;583;46020;-77
2023/03/05 14:48:39;;;;;;;;;1.00;1.00;;;;;12.97;65.35;100217.59;146613;611;47911;-75
2023/03/05 14:51:42;;;;;;;;;2.00;2.00;;;;;12.90;66.87;100218.22;146623;571;46010;-76
2023/03/05 14:54:47;;;;;;;;;1.00;1.00;;;;;12.88;66.93;100214.66;146618;572;46016;-76
2023/03/05 14:58:03;;;;;;;;;0.00;0.00;;;;;12.94;68.96;100218.34;146625;592;46020;-76
2023/03/05 15:01:00;;;;;;;;;3.25;3.00;;;;;13.06;71.30;100212.69;146620;683;46016;-76
2023/03/05 15:04:03;;;;;;;;;6.75;5.00;;;;;13.14;70.49;100216.41;146624;632;46012;-76
2023/03/05 15:07:07;;;;;;;;;7.00;6.25;;;;;13.23;69.91;100222.75;146620;681;46016;-75
2023/03/05 15:10:08;;;;;;;;;3.00;3.00;;;;;13.30;69.03;100223.06;146623;578;46020;-75